createdAt,value
2018-07-21T00:03:46.029Z,21.30
2018-07-21T00:07:49.288Z,21.20
2018-07-21T00:11:52.865Z,21.10
2018-07-21T00:15:56.117Z,21.00
2018-07-21T00:19:59.523Z,20.90
2018-07-21T00:24:03.005Z,20.80
2018-07-21T00:28:06.270Z,20.80
2018-07-21T00:32:09.552Z,20.60
2018-07-21T00:36:12.851Z,20.50
2018-07-21T00:40:16.082Z,20.30
2018-07-21T00:44:19.350Z,20.20
2018-07-21T00:48:22.591Z,20.10
2018-07-21T00:52:25.846Z,20.00
2018-07-21T00:56:29.133Z,19.90
2018-07-21T01:00:32.379Z,19.80
2018-07-21T01:04:35.666Z,19.70
2018-07-21T01:08:38.902Z,19.60
2018-07-21T01:12:42.664Z,19.50
2018-07-21T01:16:45.918Z,19.50
2018-07-21T01:20:49.261Z,19.40
2018-07-21T01:24:52.507Z,19.40
2018-07-21T01:29:02.465Z,19.30
2018-07-21T01:33:05.731Z,19.10
2018-07-21T01:37:08.984Z,19.10
2018-07-21T01:41:12.269Z,18.90
2018-07-21T01:45:15.549Z,18.70
2018-07-21T01:49:18.785Z,18.60
2018-07-21T01:53:22.055Z,18.40
2018-07-21T01:57:25.373Z,18.40
2018-07-21T02:01:28.741Z,18.40
2018-07-21T02:05:32.011Z,18.40
2018-07-21T02:09:35.228Z,18.40
2018-07-21T02:13:38.473Z,18.30
2018-07-21T02:17:41.777Z,18.30
2018-07-21T02:21:45.014Z,18.30
2018-07-21T02:25:48.270Z,18.10
2018-07-21T02:29:51.552Z,18.10
2018-07-21T02:33:54.835Z,18.10
2018-07-21T02:37:58.116Z,18.00
2018-07-21T02:46:04.543Z,17.90
2018-07-21T02:50:07.895Z,17.90
2018-07-21T02:54:11.149Z,17.80
2018-07-21T02:58:14.406Z,17.80
2018-07-21T03:02:17.683Z,17.90
2018-07-21T03:06:20.951Z,17.80
2018-07-21T03:10:24.229Z,17.80
2018-07-21T03:14:27.490Z,17.60
2018-07-21T03:18:30.743Z,17.60
2018-07-21T03:22:33.999Z,17.60
2018-07-21T03:26:37.244Z,17.60
2018-07-21T03:30:41.970Z,17.60
2018-07-21T03:34:45.434Z,17.60
2018-07-21T03:38:50.489Z,17.40
2018-07-21T03:42:53.798Z,17.30
2018-07-21T03:46:57.049Z,17.10
2018-07-21T03:51:00.302Z,16.80
2018-07-21T03:55:03.608Z,16.70
2018-07-21T03:59:06.926Z,16.70
2018-07-21T04:03:10.186Z,16.80
2018-07-21T04:07:13.426Z,16.80
2018-07-21T04:11:16.737Z,16.80
2018-07-21T04:15:19.997Z,16.70
2018-07-21T04:19:23.302Z,16.70
2018-07-21T04:23:26.573Z,16.60
2018-07-21T04:27:29.857Z,16.60
2018-07-21T04:31:33.165Z,16.50
2018-07-21T04:35:36.418Z,16.60
2018-07-21T04:39:39.681Z,16.50
2018-07-21T04:43:42.940Z,16.50
2018-07-21T04:47:46.199Z,16.60
2018-07-21T04:51:49.480Z,16.90
2018-07-21T04:55:52.718Z,16.50
2018-07-21T04:59:55.997Z,16.40
2018-07-21T05:03:59.268Z,16.30
2018-07-21T05:08:02.797Z,16.40
2018-07-21T05:12:06.064Z,16.40
2018-07-21T05:16:09.330Z,16.50
2018-07-21T05:20:12.647Z,16.70
2018-07-21T05:24:15.841Z,16.80
2018-07-21T05:28:19.109Z,16.90
2018-07-21T05:32:22.442Z,17.10
2018-07-21T05:36:25.727Z,17.40
2018-07-21T05:40:28.975Z,17.50
2018-07-21T05:44:32.234Z,17.50
2018-07-21T05:48:35.639Z,17.50
2018-07-21T05:52:38.905Z,17.70
2018-07-21T05:56:42.148Z,17.80
2018-07-21T06:00:45.409Z,18.10
2018-07-21T06:04:48.665Z,18.00
2018-07-21T06:08:51.970Z,17.90
2018-07-21T06:12:56.091Z,17.90
2018-07-21T06:16:59.406Z,18.20
2018-07-21T06:21:02.637Z,18.70
2018-07-21T06:25:06.017Z,19.00
2018-07-21T06:29:09.282Z,19.20
2018-07-21T06:33:12.519Z,19.30
2018-07-21T06:37:15.778Z,19.20
2018-07-21T06:41:19.102Z,19.10
2018-07-21T06:45:22.384Z,19.00
2018-07-21T06:49:25.706Z,19.00
2018-07-21T06:53:28.902Z,18.90
2018-07-21T06:57:32.175Z,19.10
2018-07-21T07:01:35.429Z,19.30
2018-07-21T07:05:38.721Z,19.50
2018-07-21T07:09:42.034Z,19.90
2018-07-21T07:13:45.285Z,20.00
2018-07-21T07:17:48.521Z,20.20
2018-07-21T07:21:51.818Z,20.90
2018-07-21T07:25:55.074Z,21.50
2018-07-21T07:29:58.335Z,21.60
2018-07-21T07:34:01.601Z,22.10
2018-07-21T07:38:04.894Z,22.50
2018-07-21T07:46:11.134Z,22.50
2018-07-21T07:50:14.534Z,22.70
2018-07-21T07:54:17.774Z,23.00
2018-07-21T07:58:21.037Z,22.90
2018-07-21T08:02:24.318Z,22.80
2018-07-21T08:06:27.565Z,22.70
2018-07-21T08:10:30.849Z,22.60
2018-07-21T08:14:34.144Z,22.50
2018-07-21T08:18:37.394Z,22.90
2018-07-21T08:22:40.706Z,22.60
2018-07-21T08:26:43.998Z,22.90
2018-07-21T08:30:47.742Z,23.00
2018-07-21T08:34:51.202Z,22.80
2018-07-21T08:38:54.449Z,23.10
2018-07-21T08:42:57.781Z,23.50
2018-07-21T08:47:01.131Z,23.90
2018-07-21T08:51:04.450Z,23.90
2018-07-21T08:55:07.738Z,24.00
2018-07-21T08:59:11.009Z,24.20
2018-07-21T09:03:14.263Z,24.60
2018-07-21T09:07:17.571Z,24.70
2018-07-21T09:11:21.723Z,24.30
2018-07-21T09:15:24.969Z,24.70
2018-07-21T09:19:28.224Z,25.50
2018-07-21T09:23:31.486Z,25.70
2018-07-21T09:27:34.729Z,25.90
2018-07-21T09:31:37.993Z,26.70
2018-07-21T09:35:41.248Z,27.30
2018-07-21T09:39:44.929Z,27.40
2018-07-21T09:43:48.353Z,27.70
2018-07-21T09:47:54.205Z,27.70
2018-07-21T09:51:57.525Z,28.10
2018-07-21T09:56:00.855Z,28.60
2018-07-21T10:00:06.845Z,29.50
2018-07-21T10:04:10.906Z,30.20
2018-07-21T10:08:14.173Z,31.10
2018-07-21T10:12:17.446Z,32.70
2018-07-21T10:16:20.692Z,32.50
2018-07-21T10:20:24.087Z,30.80
2018-07-21T10:24:32.619Z,32.20
2018-07-21T10:28:41.371Z,31.40
2018-07-21T10:32:44.627Z,31.30
2018-07-21T10:36:48.114Z,30.00
2018-07-21T10:40:51.995Z,30.10
2018-07-21T10:44:55.233Z,29.40
2018-07-21T10:48:58.490Z,29.30
2018-07-21T10:53:01.785Z,30.20
2018-07-21T10:57:05.019Z,30.20
2018-07-21T11:01:08.274Z,31.80
2018-07-21T11:05:11.556Z,33.20
2018-07-21T11:09:14.802Z,34.60
2018-07-21T11:13:18.049Z,32.60
2018-07-21T11:17:21.316Z,32.00
2018-07-21T11:21:24.571Z,33.30
2018-07-21T11:25:27.796Z,33.30
2018-07-21T11:29:31.243Z,34.20
2018-07-21T11:33:34.526Z,32.40
2018-07-21T11:37:37.770Z,31.40
2018-07-21T11:41:41.014Z,32.00
2018-07-21T11:45:44.332Z,30.70
2018-07-21T11:49:50.976Z,31.60
2018-07-21T11:53:54.325Z,34.20
2018-07-21T11:57:58.408Z,34.60
2018-07-21T12:02:01.691Z,34.40
2018-07-21T12:06:04.951Z,36.20
2018-07-21T12:10:08.215Z,38.10
2018-07-21T12:14:11.449Z,35.30
2018-07-21T12:18:14.761Z,33.00
2018-07-21T12:22:18.041Z,34.20
2018-07-21T12:26:21.298Z,36.30
2018-07-21T12:30:24.627Z,35.40
2018-07-21T12:34:27.901Z,35.20
2018-07-21T12:38:31.170Z,38.00
2018-07-21T12:42:34.458Z,39.60
2018-07-21T12:46:37.752Z,37.40
2018-07-21T12:50:41.169Z,33.30
2018-07-21T12:54:44.770Z,33.50
2018-07-21T12:58:48.014Z,32.80
2018-07-21T13:02:51.270Z,32.60
2018-07-21T13:06:54.503Z,32.80
2018-07-21T13:10:57.784Z,32.90
2018-07-21T13:15:01.050Z,33.00
2018-07-21T13:19:05.812Z,34.30
2018-07-21T13:23:09.193Z,33.40
2018-07-21T13:27:12.713Z,32.20
2018-07-21T13:31:16.031Z,31.90
2018-07-21T13:35:19.859Z,31.20
2018-07-21T13:39:23.870Z,30.10
2018-07-21T13:43:27.909Z,29.80
2018-07-21T13:47:32.265Z,29.50
2018-07-21T13:51:35.558Z,30.00
2018-07-21T13:55:39.133Z,30.70
2018-07-21T13:59:43.225Z,30.40
2018-07-21T14:03:46.601Z,30.90
2018-07-21T14:07:50.858Z,33.10
2018-07-21T14:11:55.752Z,33.60
2018-07-21T14:16:00.565Z,34.20
2018-07-21T14:20:04.231Z,36.00
2018-07-21T14:24:07.481Z,34.40
2018-07-21T14:28:10.734Z,32.40
2018-07-21T14:32:13.995Z,31.60
2018-07-21T14:36:17.358Z,30.90
2018-07-21T14:40:20.525Z,30.50
2018-07-21T14:44:23.783Z,30.20
2018-07-21T14:48:27.042Z,31.60
2018-07-21T14:52:30.305Z,33.20
2018-07-21T14:56:33.590Z,35.30
2018-07-21T15:00:36.882Z,36.70
2018-07-21T15:04:40.122Z,36.50
2018-07-21T15:08:43.393Z,35.80
2018-07-21T15:12:46.637Z,34.10
2018-07-21T15:16:49.890Z,33.20
2018-07-21T15:20:53.126Z,31.70
2018-07-21T15:24:56.496Z,31.10
2018-07-21T15:33:02.742Z,28.90
2018-07-21T15:37:06.270Z,28.20
2018-07-21T15:41:09.549Z,28.30
2018-07-21T15:45:14.133Z,28.00
2018-07-21T15:49:17.629Z,28.00
2018-07-21T15:53:20.889Z,28.00
2018-07-21T15:57:24.141Z,28.00
2018-07-21T16:01:27.483Z,28.00
2018-07-21T16:05:30.761Z,27.80
2018-07-21T16:09:34.070Z,27.90
2018-07-21T16:13:37.267Z,28.50
2018-07-21T16:17:40.518Z,29.00
2018-07-21T16:21:43.767Z,28.70
2018-07-21T16:25:47.018Z,28.00
2018-07-21T16:29:50.276Z,27.60
2018-07-21T16:33:53.538Z,27.30
2018-07-21T16:37:56.809Z,27.50
2018-07-21T16:42:00.803Z,27.50
2018-07-21T16:46:04.077Z,27.30
2018-07-21T16:50:07.394Z,27.30
2018-07-21T16:54:10.622Z,27.50
2018-07-21T16:58:13.877Z,27.50
2018-07-21T17:02:18.180Z,28.60
2018-07-21T17:06:21.430Z,28.50
2018-07-21T17:10:24.805Z,28.50
2018-07-21T17:14:29.065Z,29.00
2018-07-21T17:18:32.302Z,28.50
2018-07-21T17:22:35.563Z,27.90
2018-07-21T17:26:38.814Z,27.30
2018-07-21T17:30:42.079Z,27.20
2018-07-21T17:34:45.317Z,27.20
2018-07-21T17:38:48.570Z,27.30
2018-07-21T17:42:52.054Z,26.70
2018-07-21T17:46:55.320Z,26.50
2018-07-21T17:50:58.563Z,25.90
2018-07-21T17:55:01.817Z,25.70
2018-07-21T17:59:05.080Z,25.70
2018-07-21T18:03:14.710Z,25.30
2018-07-21T18:07:18.029Z,25.30
2018-07-21T18:11:21.266Z,25.00
2018-07-21T18:15:24.546Z,25.00
2018-07-21T18:19:27.800Z,24.80
2018-07-21T18:23:31.183Z,24.70
2018-07-21T18:27:34.562Z,24.60
2018-07-21T18:31:37.847Z,24.50
2018-07-21T18:35:41.142Z,24.50
2018-07-21T18:39:44.510Z,24.30
2018-07-21T18:43:47.714Z,24.20
2018-07-21T18:47:50.966Z,23.90
2018-07-21T18:51:54.208Z,23.70
2018-07-21T18:55:57.469Z,23.50
2018-07-21T19:00:00.755Z,23.50
2018-07-21T19:04:04.019Z,23.50
2018-07-21T19:08:07.291Z,23.40
2018-07-21T19:12:22.579Z,23.20
2018-07-21T19:16:37.425Z,23.10
2018-07-21T19:20:46.119Z,23.30
2018-07-21T19:24:49.388Z,23.40
2018-07-21T19:28:52.903Z,23.50
2018-07-21T19:32:58.786Z,23.60
2018-07-21T19:37:02.054Z,23.50
2018-07-21T19:42:13.466Z,23.50
2018-07-21T19:46:16.739Z,23.50
2018-07-21T19:50:19.988Z,23.30
2018-07-21T19:54:23.243Z,23.30
2018-07-21T19:58:26.486Z,23.00
2018-07-21T20:02:29.811Z,22.80
2018-07-21T20:06:33.321Z,22.70
2018-07-21T20:10:36.586Z,22.50
2018-07-21T20:14:39.833Z,22.40
2018-07-21T20:18:43.127Z,22.30
2018-07-21T20:22:46.385Z,22.40
2018-07-21T20:26:49.725Z,22.40
2018-07-21T20:30:53.026Z,22.40
2018-07-21T20:34:56.284Z,22.40
2018-07-21T20:38:59.544Z,22.30
2018-07-21T20:43:02.873Z,22.20
2018-07-21T20:47:06.173Z,22.10
2018-07-21T20:51:09.487Z,22.00
2018-07-21T20:55:12.753Z,21.90
2018-07-21T20:59:16.005Z,21.80
2018-07-21T21:03:19.258Z,21.70
2018-07-21T21:07:22.530Z,21.60
2018-07-21T21:11:25.783Z,21.60
2018-07-21T21:15:29.058Z,21.70
2018-07-21T21:19:32.310Z,21.50
2018-07-21T21:23:35.566Z,21.20
2018-07-21T21:27:38.810Z,21.20
2018-07-21T21:31:42.062Z,21.10
2018-07-21T21:35:45.304Z,21.10
2018-07-21T21:39:48.548Z,21.00
2018-07-21T21:43:51.814Z,20.70
2018-07-21T21:47:55.107Z,20.50
2018-07-21T21:51:58.352Z,20.30
2018-07-21T21:56:01.603Z,20.30
2018-07-21T22:00:08.463Z,20.40
2018-07-21T22:04:11.735Z,20.30
2018-07-21T22:08:14.939Z,20.30
2018-07-21T22:12:18.206Z,20.40
2018-07-21T22:16:21.474Z,20.40
2018-07-21T22:24:27.718Z,20.40
2018-07-21T22:28:30.982Z,20.30
2018-07-21T22:32:34.230Z,20.20
2018-07-21T22:36:37.494Z,20.10
2018-07-21T22:40:40.745Z,20.10
2018-07-21T22:44:43.986Z,20.00
2018-07-21T22:48:47.263Z,20.00
2018-07-21T22:52:50.540Z,19.90
2018-07-21T22:56:53.844Z,19.90
2018-07-21T23:00:57.086Z,19.80
2018-07-21T23:05:00.373Z,19.90
2018-07-21T23:09:04.648Z,19.90
2018-07-21T23:13:08.155Z,20.10
2018-07-21T23:17:11.469Z,20.10
2018-07-21T23:21:14.749Z,20.10
2018-07-21T23:25:18.018Z,20.20
2018-07-21T23:29:21.387Z,20.10
2018-07-21T23:33:24.638Z,20.20
2018-07-21T23:37:27.889Z,20.10
2018-07-21T23:41:31.205Z,20.10
2018-07-21T23:45:34.499Z,20.10
2018-07-21T23:49:37.731Z,20.00
2018-07-21T23:57:43.959Z,19.90
